X  Chiuso Dati meteorologici dell'aviazione (METAR)     LDPL Pula Airport
Temperatura
9°C Temperatura
6°C Punto di rugiada
82% Umidità



Vento
8 KM/O
5 MPH
2 M/S
4 KTS



110°
ESE
Condizioni attuali

Chiaro Chiaro
Pressione 1019.92 (hPa) - 30.12 (inHg)
Visibilità 6.2 (miglio) - 10 (km)
Aeroporto
Codice-Aeroporto LDPL

Posizione: Pula Airport
Distanza: 39 (km)

Metar:
LDPL 040900Z 11004KT 090V160 CAVOK 09/06 Q1020 NOSIG

Ore: 04-02-2023 10:00 CET